Grayson, OH

11:19 AM EST on December 04, 2016 (GMT -0500)
Casstown-South | | Change Station

Elev 896 ft 40.01 °N, 84.12 °W | Updated 40 seconds ago

Overcast
Overcast
39.0 °F
Feels Like 35 °F
N
6.0
Wind Variable Wind from South

Today
High -- | Low -- °F
--% Chance of Precip.
Yesterday
High -- | Low -- °F
Precip. -- in
Pressure 30.17 in
Visibility 10.0 miles
Clouds Mostly Cloudy 9000 ft
Overcast 14000 ft
Windchill 35 °F
Dew Point 30 °F
Humidity 71%
Rainfall 0.00 in
Snow Depth Not available.
7:42 AM 5:11 PM
Waxing Crescent, 23% visible
METAR KDAY 041556Z 12010KT 10SM BKN090 OVC140 03/M02 A3015 RMK AO2 SLP216 T00331022
Pressure 30.17 in
Visibility 10.0 miles
Clouds Mostly Cloudy 9000 ft
Overcast 14000 ft
Windchill 35 °F
Dew Point 30 °F
Humidity 71%
Rainfall 0.00 in
Snow Depth Not available.
7:42 AM 5:11 PM
Waxing Crescent, 23% visible
METAR KDAY 041556Z 12010KT 10SM BKN090 OVC140 03/M02 A3015 RMK AO2 SLP216 T00331022

10-Day Weather Forecast

Almanac

Astronomy

Dec. 04, 2016 Rise Set
Actual Time
Civil Twilight
Nautical Twilight
Astronomical Twilight
Moon
Length of Visible Light
Length of Day
Tomorrow will be .
, % of the Moon is Illuminated

Today's Extremes

State Highs State Lows

Community

WunderPhotos

Upload Photos

1,955,616 photos uploaded!

WunderBlog® & News

Nearby

Air Quality

  Air Quality AQ Index Pollutant
Not available.

Snow Depth

Station Depth Elevation

Earthquake Activity

City Distance Mag. Time & Date
Minimum magnitude displayed is 2.5.

Coastal Water Temperatures

Place Temperature

Stations

Nearby Weather Stations

Station Location Temp. Windchill Dew Point Humidity Wind Precip. Elev Updated Type
                   

Watches & Warnings

There are currently no watches in effect.